Time;durP1;ratioP1;P1;durP2;ratioP2;P2;SDS_P1;SDS_P2;PMS_P1;PMS_P2;Temp;Humidity;BMP_temperature;BMP_pressure;BME280_temperature;BME280_humidity;BME280_pressure;Samples;Min_cycle;Max_cycle;Signal;HPM_P1;HPM_P2
2023/05/13 00:00:19;;;;;;;5.30;4.25;;;10.20;99.90;;;;;;5185215;28;20036;-70
2023/05/13 00:02:51;;;;;;;5.53;4.53;;;10.30;99.90;;;;;;5205949;28;20041;-69
2023/05/13 00:05:24;;;;;;;5.47;4.18;;;10.30;99.90;;;;;;5196205;28;20056;-70
2023/05/13 00:07:55;;;;;;;6.10;4.55;;;10.30;99.90;;;;;;5207069;28;20036;-69
2023/05/13 00:10:26;;;;;;;4.75;4.22;;;10.30;99.90;;;;;;5205986;28;20190;-68
2023/05/13 00:13:00;;;;;;;6.45;3.95;;;10.30;99.90;;;;;;5223730;28;20049;-70
2023/05/13 00:15:31;;;;;;;5.22;4.03;;;10.30;99.90;;;;;;5205788;28;20039;-68
2023/05/13 00:18:05;;;;;;;5.28;4.00;;;10.30;99.90;;;;;;5222629;28;20033;-69
2023/05/13 00:20:37;;;;;;;5.82;4.93;;;10.30;99.90;;;;;;5190110;28;20041;-69
2023/05/13 00:23:11;;;;;;;5.05;3.72;;;10.30;99.90;;;;;;5190808;28;20043;-67
2023/05/13 00:25:43;;;;;;;4.60;4.13;;;10.40;99.90;;;;;;5206670;28;20037;-68
2023/05/13 00:28:15;;;;;;;4.28;3.38;;;10.30;99.90;;;;;;5188337;28;20048;-68
2023/05/13 00:30:51;;;;;;;6.32;4.57;;;10.20;99.90;;;;;;5218274;28;20399;-68
2023/05/13 00:33:22;;;;;;;7.20;5.22;;;10.30;99.90;;;;;;5205982;28;20037;-67
2023/05/13 00:35:54;;;;;;;6.30;4.35;;;10.30;99.90;;;;;;5223152;28;20023;-69
2023/05/13 00:38:25;;;;;;;6.28;4.70;;;10.30;99.90;;;;;;5223225;28;20378;-69
2023/05/13 00:40:57;;;;;;;6.30;4.93;;;10.30;99.90;;;;;;5187682;28;20112;-70
2023/05/13 00:43:32;;;;;;;8.20;4.85;;;10.20;99.90;;;;;;5205131;28;20041;-70
2023/05/13 00:46:03;;;;;;;4.72;4.03;;;10.20;99.90;;;;;;5197477;28;20054;-69
2023/05/13 00:48:35;;;;;;;6.07;4.45;;;10.20;99.90;;;;;;5205076;28;20032;-68
2023/05/13 00:51:07;;;;;;;6.47;4.03;;;10.20;99.90;;;;;;5201505;28;20056;-68
2023/05/13 00:53:39;;;;;;;8.40;5.20;;;10.20;99.90;;;;;;5222283;28;20027;-68
2023/05/13 00:56:10;;;;;;;8.48;5.57;;;10.30;99.90;;;;;;5204626;28;20257;-70
2023/05/13 00:58:44;;;;;;;6.10;4.75;;;10.30;99.90;;;;;;5186910;28;20049;-70
2023/05/13 01:04:13;;;;;;;5.93;4.72;;;10.20;99.90;;;;;;5156165;28;20090;-67
2023/05/13 01:07:35;;;;;;;4.30;3.88;;;10.20;99.90;;;;;;5119107;28;20050;-70
2023/05/13 01:10:24;;;;;;;5.68;3.97;;;10.20;99.90;;;;;;5068965;29;20056;-71
2023/05/13 01:13:02;;;;;;;5.80;4.25;;;10.10;99.90;;;;;;5068768;29;20041;-72
2023/05/13 01:15:40;;;;;;;7.55;5.85;;;10.10;99.90;;;;;;5049778;29;20021;-69
2023/05/13 01:18:19;;;;;;;4.90;3.90;;;10.00;99.90;;;;;;5028488;29;20035;-71
2023/05/13 01:20:50;;;;;;;6.30;4.50;;;10.10;99.90;;;;;;5054085;29;20056;-69
2023/05/13 01:23:24;;;;;;;10.65;6.45;;;10.10;99.90;;;;;;5044084;29;20024;-67
2023/05/13 01:25:55;;;;;;;6.60;4.60;;;10.00;99.90;;;;;;5058190;29;20304;-69
2023/05/13 01:28:30;;;;;;;8.88;5.63;;;10.00;99.90;;;;;;5059765;29;20043;-69
2023/05/13 01:31:01;;;;;;;;;;;10.10;99.90;;;;;;5055490;29;20052;-69
2023/05/13 01:33:33;;;;;;;6.05;4.68;;;10.00;99.90;;;;;;5053103;29;19915;-68
2023/05/13 01:36:06;;;;;;;6.55;4.22;;;10.00;99.90;;;;;;5033831;29;20051;-69
2023/05/13 01:38:45;;;;;;;5.13;4.63;;;9.90;99.90;;;;;;5060385;29;20040;-65
2023/05/13 01:41:18;;;;;;;6.35;4.82;;;10.00;99.90;;;;;;5059823;29;20723;-67
2023/05/13 01:43:52;;;;;;;6.05;4.55;;;10.00;99.90;;;;;;5040680;29;20040;-69
2023/05/13 01:46:24;;;;;;;6.28;5.00;;;10.00;99.90;;;;;;5115544;28;20179;-68
2023/05/13 01:48:56;;;;;;;6.20;4.28;;;10.00;99.90;;;;;;5157411;28;20038;-70
2023/05/13 01:51:35;;;;;;;6.47;5.07;;;10.00;99.90;;;;;;5142957;28;20046;-66
2023/05/13 01:54:07;;;;;;;5.45;4.63;;;9.90;99.90;;;;;;5157769;28;20030;-69
2023/05/13 01:56:38;;;;;;;5.97;4.55;;;9.90;99.90;;;;;;5158047;28;20022;-70
2023/05/13 01:59:10;;;;;;;6.45;4.60;;;9.90;99.90;;;;;;5141230;28;20327;-68
2023/05/13 02:01:59;;;;;;;5.53;4.95;;;9.90;99.90;;;;;;5140756;28;20397;-71
2023/05/13 02:04:33;;;;;;;5.55;4.15;;;9.90;99.90;;;;;;5131460;28;20330;-68
2023/05/13 02:07:05;;;;;;;4.28;3.63;;;9.90;99.90;;;;;;5126493;28;20050;-70
2023/05/13 02:09:37;;;;;;;7.10;4.50;;;9.90;99.90;;;;;;5141977;28;20046;-68
2023/05/13 02:12:08;;;;;;;10.15;4.80;;;9.90;99.90;;;;;;5158325;28;20037;-71
2023/05/13 02:14:41;;;;;;;6.80;4.63;;;9.90;99.90;;;;;;5142148;28;20052;-69
2023/05/13 02:17:15;;;;;;;6.07;3.97;;;9.90;99.90;;;;;;5139952;28;20038;-70
2023/05/13 02:19:46;;;;;;;5.53;4.53;;;9.90;99.90;;;;;;5157009;28;20053;-71
2023/05/13 02:22:20;;;;;;;6.63;3.90;;;9.90;99.90;;;;;;5123554;28;20046;-70
2023/05/13 02:24:57;;;;;;;4.38;3.95;;;9.90;99.90;;;;;;5141814;28;20061;-69
2023/05/13 02:27:29;;;;;;;6.07;3.55;;;9.90;99.90;;;;;;5140904;28;20034;-68
2023/05/13 02:30:01;;;;;;;4.22;3.65;;;10.00;99.90;;;;;;5124925;28;20038;-69
2023/05/13 02:32:32;;;;;;;5.50;4.28;;;9.90;99.90;;;;;;5153396;28;20044;-71
2023/05/13 02:35:07;;;;;;;3.60;3.30;;;9.90;99.90;;;;;;5141963;28;20064;-68
2023/05/13 02:37:38;;;;;;;4.45;3.92;;;9.90;99.90;;;;;;5158882;28;20044;-69
2023/05/13 02:40:10;;;;;;;5.25;3.33;;;9.90;99.90;;;;;;5159599;28;20034;-67
2023/05/13 02:42:42;;;;;;;9.55;4.30;;;9.90;99.90;;;;;;5139174;28;20550;-69
2023/05/13 02:45:15;;;;;;;4.43;3.78;;;9.90;99.90;;;;;;5139276;28;20027;-69
2023/05/13 02:47:46;;;;;;;5.47;4.03;;;10.00;99.90;;;;;;5141741;28;20046;-70
2023/05/13 02:50:18;;;;;;;4.20;3.65;;;10.00;99.90;;;;;;5127155;28;20053;-68
2023/05/13 02:53:13;;;;;;;4.80;4.18;;;10.00;99.90;;;;;;5136998;28;20053;-67
2023/05/13 02:55:44;;;;;;;5.57;4.28;;;10.00;99.90;;;;;;5128980;28;20420;-70
2023/05/13 02:58:18;;;;;;;5.25;4.22;;;10.00;99.90;;;;;;5117613;28;20049;-69
2023/05/13 03:00:52;;;;;;;5.35;3.63;;;10.00;99.90;;;;;;5123483;28;20098;-70
2023/05/13 03:03:23;;;;;;;6.55;4.03;;;10.00;99.90;;;;;;5155690;28;20050;-66
2023/05/13 03:05:55;;;;;;;5.30;4.40;;;10.00;99.90;;;;;;5130525;28;20049;-70
2023/05/13 03:08:27;;;;;;;6.22;5.07;;;10.00;99.90;;;;;;5126229;28;20060;-69
2023/05/13 03:10:58;;;;;;;5.05;3.25;;;10.00;99.90;;;;;;5132598;28;20032;-71
2023/05/13 03:13:29;;;;;;;7.25;4.90;;;10.00;99.90;;;;;;5141841;28;20040;-68
2023/05/13 03:16:06;;;;;;;12.60;4.70;;;10.10;99.90;;;;;;5154938;28;20496;-68
2023/05/13 03:18:40;;;;;;;7.00;4.10;;;10.10;99.90;;;;;;5142457;28;20042;-70
2023/05/13 03:21:14;;;;;;;4.95;4.40;;;10.00;99.90;;;;;;5124615;28;20045;-68
2023/05/13 03:23:48;;;;;;;4.90;3.53;;;10.10;99.90;;;;;;5141601;28;20034;-66
2023/05/13 03:26:21;;;;;;;6.10;4.65;;;10.00;99.90;;;;;;5139447;28;20030;-68
2023/05/13 03:28:52;;;;;;;5.32;4.50;;;10.00;99.90;;;;;;5124829;28;20043;-70
2023/05/13 03:31:23;;;;;;;5.00;4.25;;;10.10;99.90;;;;;;5144376;28;20024;-70
2023/05/13 03:33:55;;;;;;;5.68;4.53;;;10.10;99.90;;;;;;5142593;28;20038;-69
2023/05/13 03:36:33;;;;;;;6.43;4.10;;;10.10;99.90;;;;;;5143726;28;20031;-69
2023/05/13 03:39:06;;;;;;;5.82;4.65;;;10.10;99.90;;;;;;5141526;28;20046;-69
2023/05/13 03:41:38;;;;;;;4.63;4.03;;;10.10;99.90;;;;;;5144405;28;20515;-69
2023/05/13 03:44:09;;;;;;;6.53;4.07;;;10.00;99.90;;;;;;5142006;28;20036;-68
2023/05/13 03:46:43;;;;;;;6.55;4.80;;;10.10;99.90;;;;;;5158797;28;20052;-69
2023/05/13 03:49:14;;;;;;;4.18;3.75;;;10.10;99.90;;;;;;5144870;28;20061;-69
2023/05/13 03:51:47;;;;;;;6.43;5.28;;;10.00;99.90;;;;;;5111387;28;20038;-70
2023/05/13 03:54:19;;;;;;;6.03;4.45;;;10.00;99.90;;;;;;5126629;28;20239;-69
2023/05/13 03:56:50;;;;;;;6.35;4.85;;;10.00;99.90;;;;;;5127271;28;20427;-69
2023/05/13 03:59:21;;;;;;;4.65;3.97;;;10.10;99.90;;;;;;5160028;28;20030;-69
2023/05/13 04:01:58;;;;;;;6.40;4.40;;;10.10;99.90;;;;;;5137560;28;20052;-71
2023/05/13 04:04:29;;;;;;;7.65;4.88;;;10.10;99.90;;;;;;5149314;28;20059;-69
2023/05/13 04:07:03;;;;;;;5.88;5.03;;;10.10;99.90;;;;;;5113680;28;20114;-71
2023/05/13 04:09:34;;;;;;;6.15;4.85;;;10.10;99.90;;;;;;5162602;28;20034;-70
2023/05/13 04:12:06;;;;;;;6.85;4.22;;;10.10;99.90;;;;;;5141964;28;20330;-65
2023/05/13 04:14:40;;;;;;;5.22;3.67;;;10.10;99.90;;;;;;5144451;28;20557;-69
2023/05/13 04:17:11;;;;;;;5.50;4.63;;;10.20;99.90;;;;;;5141709;28;20044;-69
2023/05/13 04:19:42;;;;;;;6.70;4.70;;;10.20;99.90;;;;;;5144474;28;20040;-71
2023/05/13 04:22:14;;;;;;;6.03;4.93;;;10.20;99.90;;;;;;5160609;28;20547;-70
2023/05/13 04:24:46;;;;;;;4.65;4.20;;;10.20;99.90;;;;;;5161043;28;20034;-69
2023/05/13 04:27:17;;;;;;;5.43;4.28;;;10.20;99.90;;;;;;5161771;28;20030;-72
2023/05/13 04:29:51;;;;;;;5.88;4.07;;;10.20;99.90;;;;;;5146953;28;20437;-68
2023/05/13 04:32:24;;;;;;;5.20;4.07;;;10.20;99.90;;;;;;5156311;28;20266;-68
2023/05/13 04:34:58;;;;;;;6.47;4.22;;;10.20;99.90;;;;;;5129651;28;20246;-68
2023/05/13 04:37:32;;;;;;;5.85;5.10;;;10.20;99.90;;;;;;5145775;28;20036;-67
2023/05/13 04:40:04;;;;;;;;;;;10.20;99.90;;;;;;5162371;28;20034;-70
2023/05/13 04:42:38;;;;;;;6.07;3.78;;;10.20;99.90;;;;;;5161433;28;20289;-67
2023/05/13 04:45:10;;;;;;;;;;;10.20;99.90;;;;;;5141133;28;20053;-70
2023/05/13 04:47:41;;;;;;;4.63;3.88;;;10.20;99.90;;;;;;5159939;28;19918;-68
2023/05/13 04:50:12;;;;;;;4.90;3.70;;;10.10;99.90;;;;;;5162502;28;20106;-67
2023/05/13 04:52:45;;;;;;;7.25;4.70;;;10.20;99.90;;;;;;5128176;28;20068;-71
2023/05/13 04:55:18;;;;;;;6.20;4.47;;;10.20;99.90;;;;;;5143921;28;20038;-70
2023/05/13 04:57:52;;;;;;;7.60;5.70;;;10.20;99.90;;;;;;5124647;28;20062;-69
2023/05/13 05:00:26;;;;;;;6.63;5.25;;;10.20;99.90;;;;;;5121343;28;20345;-68
2023/05/13 05:03:00;;;;;;;5.43;4.53;;;10.20;99.90;;;;;;5139889;28;20330;-69
2023/05/13 05:05:31;;;;;;;5.25;3.90;;;10.30;99.90;;;;;;5091239;28;20047;-69
2023/05/13 05:08:02;;;;;;;4.85;3.85;;;10.20;99.90;;;;;;5122514;28;20238;-69
2023/05/13 05:10:34;;;;;;;6.68;4.78;;;10.20;99.90;;;;;;5143535;28;20030;-68
2023/05/13 05:13:05;;;;;;;6.28;4.80;;;10.20;99.90;;;;;;5141592;28;20041;-69
2023/05/13 05:15:37;;;;;;;6.55;5.20;;;10.30;99.90;;;;;;5134398;28;20048;-68
2023/05/13 05:18:08;;;;;;;5.35;4.50;;;10.20;99.90;;;;;;5151596;28;20255;-66
2023/05/13 05:20:40;;;;;;;7.68;4.88;;;10.30;99.90;;;;;;5147935;28;20377;-69
2023/05/13 05:23:14;;;;;;;7.18;5.55;;;10.20;99.90;;;;;;5160151;28;20334;-68
2023/05/13 05:25:45;;;;;;;5.10;4.50;;;10.20;99.90;;;;;;5126990;28;20137;-69
2023/05/13 05:28:16;;;;;;;5.30;3.97;;;10.20;99.90;;;;;;5141084;28;20046;-69
2023/05/13 05:30:48;;;;;;;8.82;6.10;;;10.20;99.90;;;;;;5122280;28;20049;-66
2023/05/13 05:33:19;;;;;;;7.35;5.00;;;10.20;99.90;;;;;;5122943;28;20056;-68
2023/05/13 05:35:53;;;;;;;7.07;5.07;;;10.20;99.90;;;;;;5138735;28;20409;-69
2023/05/13 05:38:29;;;;;;;7.70;5.13;;;10.30;99.90;;;;;;5122481;28;20034;-67
2023/05/13 05:41:01;;;;;;;5.80;4.97;;;10.40;99.90;;;;;;5154999;28;20045;-69
2023/05/13 05:43:32;;;;;;;6.65;5.13;;;10.40;99.90;;;;;;5137267;28;20042;-68
2023/05/13 05:46:03;;;;;;;7.93;5.93;;;10.30;99.90;;;;;;5117147;28;20047;-67
2023/05/13 05:48:36;;;;;;;7.63;5.47;;;10.30;99.90;;;;;;5121580;28;20057;-68
2023/05/13 05:51:10;;;;;;;6.50;5.43;;;10.40;99.90;;;;;;5147608;28;20038;-66
2023/05/13 05:53:43;;;;;;;5.57;5.03;;;10.50;99.90;;;;;;5119923;28;20040;-65
2023/05/13 05:56:14;;;;;;;6.00;4.60;;;10.50;99.90;;;;;;5123734;28;20038;-68
2023/05/13 05:58:48;;;;;;;6.38;4.80;;;10.60;99.90;;;;;;5141134;28;20038;-67
2023/05/13 06:01:22;;;;;;;9.65;5.00;;;10.50;99.90;;;;;;5153990;28;20034;-66
2023/05/13 06:03:56;;;;;;;8.30;5.30;;;10.50;99.90;;;;;;5119896;28;20027;-70
2023/05/13 06:06:28;;;;;;;7.03;4.15;;;10.70;99.90;;;;;;5112530;28;20046;-67
2023/05/13 06:08:59;;;;;;;9.10;5.57;;;10.60;99.90;;;;;;5102275;28;20040;-66
2023/05/13 06:11:31;;;;;;;5.68;5.07;;;10.60;99.90;;;;;;5115384;28;20042;-66
2023/05/13 06:14:05;;;;;;;7.22;5.90;;;10.70;99.90;;;;;;5120476;28;20038;-70
2023/05/13 06:16:39;;;;;;;7.97;6.15;;;10.70;99.90;;;;;;5105083;28;20038;-67
2023/05/13 06:19:10;;;;;;;8.07;6.68;;;10.80;99.90;;;;;;5103474;28;20039;-68
2023/05/13 06:21:42;;;;;;;8.02;5.47;;;10.90;99.90;;;;;;5118834;28;20041;-68
2023/05/13 06:24:15;;;;;;;6.35;4.90;;;11.00;99.90;;;;;;5139576;28;20030;-67
2023/05/13 06:26:47;;;;;;;8.37;6.30;;;11.10;99.90;;;;;;5138445;28;20041;-68
2023/05/13 06:29:23;;;;;;;6.28;4.78;;;11.20;99.90;;;;;;5106042;28;20042;-66
2023/05/13 06:31:56;;;;;;;6.82;5.20;;;11.20;99.90;;;;;;5114866;28;20031;-67
2023/05/13 06:34:34;;;;;;;6.47;5.47;;;11.40;99.90;;;;;;5106657;28;20034;-64
2023/05/13 06:37:08;;;;;;;7.47;5.45;;;11.40;99.90;;;;;;5122333;28;20035;-70
2023/05/13 06:39:39;;;;;;;5.60;4.80;;;11.30;99.90;;;;;;5121546;28;20349;-65
2023/05/13 06:42:11;;;;;;;5.78;5.05;;;11.50;99.90;;;;;;5121730;28;20038;-68
2023/05/13 06:44:45;;;;;;;6.22;5.07;;;11.60;99.90;;;;;;5122886;28;20047;-67
2023/05/13 06:47:16;;;;;;;6.28;5.28;;;11.80;99.90;;;;;;5120052;28;20034;-69
2023/05/13 06:49:48;;;;;;;5.57;4.55;;;12.00;99.90;;;;;;5132041;28;20505;-66
2023/05/13 06:52:22;;;;;;;7.30;5.13;;;11.70;99.90;;;;;;5134607;28;20039;-68
2023/05/13 06:54:53;;;;;;;5.55;5.03;;;11.70;99.90;;;;;;5106279;28;20042;-66
2023/05/13 06:57:27;;;;;;;6.50;5.38;;;11.50;99.90;;;;;;5120803;28;20031;-67
2023/05/13 07:00:01;;;;;;;5.50;4.53;;;11.50;99.90;;;;;;5122183;28;20057;-67
2023/05/13 07:02:35;;;;;;;6.22;5.40;;;11.40;99.90;;;;;;5133384;28;20052;-66
2023/05/13 07:05:07;;;;;;;6.00;5.20;;;11.30;99.90;;;;;;5119302;28;20046;-69
2023/05/13 07:07:42;;;;;;;6.60;4.88;;;11.20;99.90;;;;;;5126811;28;20038;-67
2023/05/13 07:10:13;;;;;;;5.50;4.70;;;11.30;99.90;;;;;;5145907;28;20048;-69
2023/05/13 07:12:44;;;;;;;7.20;4.97;;;11.40;99.90;;;;;;5145340;28;20040;-67
2023/05/13 07:15:19;;;;;;;6.85;6.15;;;11.60;99.90;;;;;;5159174;28;20042;-67
2023/05/13 07:17:50;;;;;;;6.40;5.57;;;11.70;99.90;;;;;;5142812;28;20026;-70
2023/05/13 07:20:22;;;;;;;6.15;4.72;;;11.70;99.90;;;;;;5159276;28;20049;-67
2023/05/13 07:22:56;;;;;;;5.38;4.72;;;11.60;99.90;;;;;;5161709;28;20034;-68
2023/05/13 07:25:30;;;;;;;5.63;5.03;;;11.70;99.90;;;;;;5128951;28;20053;-66
2023/05/13 07:28:04;;;;;;;5.03;4.53;;;11.70;99.90;;;;;;5113096;28;20049;-70
2023/05/13 07:30:40;;;;;;;7.22;5.38;;;11.70;99.90;;;;;;5136251;28;20516;-67
2023/05/13 07:33:15;;;;;;;5.07;4.53;;;11.70;99.90;;;;;;5162544;28;20044;-66
2023/05/13 07:35:49;;;;;;;7.07;4.85;;;11.80;99.90;;;;;;5127170;28;20046;-68
2023/05/13 07:38:24;;;;;;;78.75;46.65;;;11.90;99.90;;;;;;5126349;28;20042;-67
2023/05/13 07:40:58;;;;;;;501.05;218.75;;;12.10;99.90;;;;;;5128993;28;20034;-67
2023/05/13 07:43:29;;;;;;;1407.50;596.80;;;12.20;99.90;;;;;;5128361;28;20049;-69
2023/05/13 07:46:05;;;;;;;619.72;234.93;;;12.20;99.90;;;;;;5141886;28;20033;-68
2023/05/13 07:48:40;;;;;;;168.18;87.97;;;12.00;99.90;;;;;;5144333;28;20041;-69
2023/05/13 07:51:11;;;;;;;44.83;24.65;;;12.10;99.90;;;;;;5115236;28;20039;-68
2023/05/13 07:53:46;;;;;;;48.17;26.27;;;12.20;99.90;;;;;;5127005;28;20043;-68
2023/05/13 07:56:17;;;;;;;150.88;82.35;;;12.30;99.90;;;;;;5160795;28;20045;-69
2023/05/13 07:58:49;;;;;;;20.58;13.55;;;12.40;99.90;;;;;;5142674;28;20026;-68
2023/05/13 08:01:23;;;;;;;29.50;16.00;;;12.50;99.90;;;;;;5125203;28;20036;-67
2023/05/13 08:03:57;;;;;;;14.80;9.27;;;12.50;99.90;;;;;;5127949;28;20256;-67
2023/05/13 08:06:31;;;;;;;6.82;6.15;;;12.70;99.90;;;;;;5124275;28;20049;-66
2023/05/13 08:09:03;;;;;;;6.80;6.20;;;12.90;99.90;;;;;;5125000;28;20394;-67
2023/05/13 08:11:34;;;;;;;8.27;5.53;;;12.90;99.90;;;;;;5124455;28;20034;-68
2023/05/13 08:14:08;;;;;;;6.25;5.60;;;13.10;99.90;;;;;;5127986;28;20342;-67
2023/05/13 08:16:42;;;;;;;7.40;6.13;;;13.40;99.90;;;;;;5124748;28;20037;-69
2023/05/13 08:19:14;;;;;;;5.63;5.03;;;13.60;99.90;;;;;;5137542;28;20049;-68
2023/05/13 08:21:51;;;;;;;8.40;5.68;;;13.50;23.20;;;;;;5128819;28;20092;-69
2023/05/13 08:24:25;;;;;;;5.55;4.90;;;13.30;92.40;;;;;;5127523;28;20034;-67
2023/05/13 08:26:57;;;;;;;7.88;5.60;;;13.00;99.90;;;;;;5150279;28;20038;-70
2023/05/13 08:29:28;;;;;;;6.88;5.22;;;12.60;99.90;;;;;;5142991;28;20061;-69
2023/05/13 08:32:02;;;;;;;5.63;4.57;;;12.40;99.90;;;;;;5134414;28;20532;-68
2023/05/13 08:34:36;;;;;;;7.75;5.45;;;12.10;99.90;;;;;;5142471;28;20041;-69
2023/05/13 08:37:08;;;;;;;8.50;6.55;;;12.10;99.90;;;;;;5160708;28;20470;-66
2023/05/13 08:39:44;;;;;;;7.90;6.25;;;12.00;99.90;;;;;;5144504;28;20268;-69
2023/05/13 08:42:21;;;;;;;7.28;5.25;;;12.00;99.90;;;;;;5160602;28;20033;-67
2023/05/13 08:44:53;;;;;;;6.95;4.97;;;11.90;99.90;;;;;;5155225;28;20026;-70
2023/05/13 08:47:27;;;;;;;7.38;4.35;;;11.80;99.90;;;;;;5126185;28;20358;-70
2023/05/13 08:49:58;;;;;;;7.40;4.97;;;11.80;99.90;;;;;;5159837;28;20040;-70
2023/05/13 08:52:30;;;;;;;5.88;4.93;;;11.70;99.90;;;;;;5162235;28;20030;-67
2023/05/13 08:55:04;;;;;;;6.32;5.13;;;11.80;99.90;;;;;;5152150;28;20057;-71
2023/05/13 08:57:38;;;;;;;7.30;4.75;;;11.90;99.90;;;;;;5127374;28;20052;-67
2023/05/13 09:00:10;;;;;;;;;;;12.10;99.90;;;;;;5126503;28;20038;-67
2023/05/13 09:02:43;;;;;;;7.05;4.60;;;12.10;99.90;;;;;;5117284;28;19918;-67
2023/05/13 09:05:16;;;;;;;6.05;4.63;;;12.10;99.90;;;;;;5144030;28;20088;-68
2023/05/13 09:07:56;;;;;;;6.28;3.92;;;12.20;99.90;;;;;;5127355;28;20045;-68
2023/05/13 09:10:27;;;;;;;6.72;5.32;;;12.20;99.90;;;;;;5140882;28;20050;-69
2023/05/13 09:13:01;;;;;;;7.10;5.28;;;12.30;99.90;;;;;;5158446;28;20056;-68
2023/05/13 09:15:35;;;;;;;6.65;4.38;;;12.40;99.90;;;;;;5121973;28;20335;-69
2023/05/13 09:18:06;;;;;;;6.47;4.95;;;12.50;99.90;;;;;;5126534;28;20045;-68
2023/05/13 09:20:39;;;;;;;7.45;6.07;;;12.40;99.90;;;;;;5127051;28;20034;-68
2023/05/13 09:23:16;;;;;;;5.40;4.13;;;12.30;99.90;;;;;;5125435;28;20248;-68
2023/05/13 09:25:48;;;;;;;6.85;4.47;;;12.40;99.90;;;;;;5160988;28;20030;-68
2023/05/13 09:28:19;;;;;;;6.65;4.68;;;12.40;99.90;;;;;;5159038;28;20038;-66
2023/05/13 09:30:56;;;;;;;7.15;4.28;;;12.30;99.90;;;;;;5153775;28;20414;-64
2023/05/13 09:33:31;;;;;;;5.10;4.38;;;12.20;99.90;;;;;;5154545;28;20037;-68
2023/05/13 09:36:06;;;;;;;8.48;5.68;;;12.30;99.90;;;;;;5126593;28;20048;-68
2023/05/13 09:38:40;;;;;;;5.68;4.32;;;12.50;99.90;;;;;;5141222;28;20327;-67
2023/05/13 09:41:20;;;;;;;6.03;4.95;;;12.50;99.90;;;;;;5140129;28;20033;-69
2023/05/13 09:43:53;;;;;;;5.03;4.35;;;12.40;99.90;;;;;;5135061;28;20038;-68
2023/05/13 09:46:25;;;;;;;7.30;5.53;;;12.50;99.90;;;;;;5123035;28;20049;-67
2023/05/13 09:48:57;;;;;;;5.40;4.22;;;12.60;99.90;;;;;;5158344;28;20046;-69
2023/05/13 09:51:32;;;;;;;5.15;3.97;;;13.00;99.90;;;;;;5156304;28;20443;-70
2023/05/13 09:54:05;;;;;;;4.45;3.75;;;13.20;99.00;;;;;;5139911;28;20040;-68
2023/05/13 09:56:37;;;;;;;6.85;5.18;;;13.40;99.10;;;;;;5139367;28;20034;-67
2023/05/13 09:59:10;;;;;;;4.57;4.15;;;13.50;86.70;;;;;;5157556;28;20519;-67
2023/05/13 10:01:45;;;;;;;5.50;4.88;;;13.70;81.70;;;;;;5112055;28;20076;-69
2023/05/13 10:04:16;;;;;;;5.22;4.07;;;13.60;4.50;;;;;;5113617;28;20034;-66
2023/05/13 10:06:48;;;;;;;4.18;3.65;;;13.50;22.90;;;;;;5161161;28;20022;-69
2023/05/13 10:09:21;;;;;;;5.15;4.25;;;13.50;11.00;;;;;;5156835;28;20045;-67
2023/05/13 10:11:54;;;;;;;4.97;4.10;;;13.60;19.40;;;;;;5156398;28;20028;-68
2023/05/13 10:14:26;;;;;;;5.18;4.10;;;13.70;33.50;;;;;;5158492;28;20044;-68
2023/05/13 10:17:01;;;;;;;7.63;4.60;;;13.60;14.90;;;;;;5120546;28;20276;-71
2023/05/13 10:19:36;;;;;;;4.70;4.20;;;13.60;50.20;;;;;;5156013;28;20030;-70
2023/05/13 10:22:08;;;;;;;4.80;4.10;;;13.80;70.50;;;;;;5154951;28;20030;-68
2023/05/13 10:24:41;;;;;;;7.30;4.18;;;13.70;16.40;;;;;;5124365;28;20042;-67
2023/05/13 10:27:14;;;;;;;6.60;4.50;;;13.80;14.10;;;;;;5147179;28;20037;-68
2023/05/13 10:29:51;;;;;;;5.07;4.00;;;13.80;21.50;;;;;;5142214;28;20060;-68
2023/05/13 10:32:28;;;;;;;6.10;4.55;;;13.70;4.40;;;;;;5135227;28;20038;-68
2023/05/13 10:35:09;;;;;;;6.32;4.68;;;13.60;17.70;;;;;;5143329;28;20038;-67
2023/05/13 10:37:58;;;;;;;6.57;4.55;;;13.50;14.50;;;;;;5143654;28;20042;-67
2023/05/13 10:40:56;;;;;;;5.70;4.30;;;13.30;73.20;;;;;;5134914;28;20038;-66
2023/05/13 10:43:31;;;;;;;4.03;3.53;;;13.20;76.10;;;;;;5126880;28;20042;-69
2023/05/13 10:46:11;;;;;;;4.40;3.92;;;13.10;90.80;;;;;;5146041;28;20469;-70
2023/05/13 10:48:48;;;;;;;5.75;4.15;;;12.90;93.00;;;;;;5161368;28;20815;-65
2023/05/13 10:51:23;;;;;;;5.45;3.78;;;12.80;99.90;;;;;;5146529;28;20064;-68
2023/05/13 10:53:59;;;;;;;4.57;4.00;;;12.80;99.90;;;;;;5128596;28;20039;-68
2023/05/13 10:56:33;;;;;;;7.78;4.75;;;12.80;99.90;;;;;;5146489;28;20046;-67
2023/05/13 10:59:05;;;;;;;7.43;5.05;;;12.80;99.90;;;;;;5155365;28;20278;-67
2023/05/13 11:01:42;;;;;;;4.28;3.80;;;12.80;99.90;;;;;;5126418;28;20041;-68
2023/05/13 11:04:18;;;;;;;5.13;4.50;;;12.90;99.90;;;;;;5137444;28;20048;-67
2023/05/13 11:06:50;;;;;;;7.70;4.70;;;12.90;99.90;;;;;;5141756;28;20339;-67
2023/05/13 11:09:22;;;;;;;5.72;4.38;;;12.80;99.90;;;;;;5127968;28;20061;-69
2023/05/13 11:11:57;;;;;;;7.22;4.82;;;12.80;99.90;;;;;;5159927;28;20018;-67
2023/05/13 11:14:32;;;;;;;5.07;4.18;;;12.90;99.90;;;;;;5147147;28;20044;-67
2023/05/13 11:17:03;;;;;;;4.85;4.03;;;13.10;99.90;;;;;;5146131;28;20270;-65
2023/05/13 11:19:36;;;;;;;8.32;4.53;;;13.30;38.70;;;;;;5160114;28;20031;-68
2023/05/13 11:22:15;;;;;;;6.40;4.40;;;13.40;17.00;;;;;;5127747;28;20041;-67
2023/05/13 11:25:06;;;;;;;4.68;3.38;;;13.60;13.70;;;;;;5125554;28;20038;-68
2023/05/13 11:27:46;;;;;;;5.80;4.75;;;13.70;6.20;;;;;;5143602;28;20348;-68
2023/05/13 11:30:26;;;;;;;5.00;3.92;;;13.50;11.50;;;;;;5153274;28;20053;-65
2023/05/13 11:32:58;;;;;;;5.68;4.18;;;13.50;45.40;;;;;;5128636;28;20069;-66
2023/05/13 11:35:31;;;;;;;5.90;4.70;;;13.40;31.80;;;;;;5158138;28;20278;-67
2023/05/13 11:38:05;;;;;;;;;;;13.30;66.80;;;;;;5160073;28;20030;-66
2023/05/13 11:40:39;;;;;;;4.90;3.88;;;13.50;70.50;;;;;;5128839;28;19920;-68
2023/05/13 11:43:17;;;;;;;5.38;3.95;;;13.80;15.00;;;;;;5127521;28;20350;-68
2023/05/13 11:45:49;;;;;;;5.30;4.28;;;13.90;1.00;;;;;;5124960;28;20339;-68
2023/05/13 11:48:22;;;;;;;4.25;3.85;;;13.80;1.00;;;;;;5161246;28;20520;-66
2023/05/13 11:50:59;;;;;;;5.32;4.07;;;13.60;28.40;;;;;;5127343;28;20652;-69
2023/05/13 11:53:33;;;;;;;4.45;3.90;;;13.50;17.90;;;;;;5135127;28;20050;-67
2023/05/13 11:56:11;;;;;;;5.85;4.03;;;13.20;91.60;;;;;;5111127;28;20069;-69
2023/05/13 11:58:48;;;;;;;4.22;3.83;;;13.30;99.90;;;;;;5127823;28;20048;-68
2023/05/13 12:01:20;;;;;;;4.70;3.75;;;13.20;99.90;;;;;;5139809;28;20232;-68
2023/05/13 12:04:00;;;;;;;5.15;4.07;;;13.20;99.90;;;;;;5144710;28;20046;-67
2023/05/13 12:06:32;;;;;;;6.55;3.72;;;13.40;92.80;;;;;;5134789;28;20493;-67
2023/05/13 12:09:07;;;;;;;4.30;3.85;;;13.40;27.40;;;;;;5143201;28;20038;-68
2023/05/13 12:11:42;;;;;;;5.95;3.88;;;13.50;29.20;;;;;;5139859;28;20457;-66
2023/05/13 12:14:16;;;;;;;;;;;13.60;24.50;;;;;;5145110;28;20048;-70
2023/05/13 12:16:47;;;;;;;3.67;3.38;;;13.40;36.70;;;;;;5159789;28;19940;-68
2023/05/13 12:19:22;;;;;;;4.22;3.83;;;13.20;38.70;;;;;;5144629;28;20046;-66
2023/05/13 12:21:55;;;;;;;;;;;13.10;43.30;;;;;;5130574;28;20033;-68
2023/05/13 12:24:31;;;;;;;5.43;3.95;;;13.00;78.90;;;;;;5162304;28;19916;-66
2023/05/13 12:27:06;;;;;;;5.90;4.82;;;13.00;99.90;;;;;;5145052;28;20040;-68
2023/05/13 12:29:40;;;;;;;5.15;3.85;;;13.00;85.80;;;;;;5129339;28;20047;-66
2023/05/13 12:32:15;;;;;;;4.63;3.88;;;13.00;71.40;;;;;;5123342;28;20049;-70
2023/05/13 12:34:51;;;;;;;4.65;3.65;;;13.00;91.40;;;;;;5144212;28;20481;-69
2023/05/13 12:37:25;;;;;;;4.15;3.75;;;13.10;99.90;;;;;;5144876;28;20044;-68
2023/05/13 12:40:08;;;;;;;;;;;13.20;89.90;;;;;;5145191;28;20042;-67
2023/05/13 12:42:44;;;;;;;4.65;3.72;;;13.30;74.20;;;;;;5140942;28;19928;-69
2023/05/13 12:45:18;;;;;;;4.05;3.35;;;13.30;88.40;;;;;;5122815;28;20050;-67
2023/05/13 12:47:54;;;;;;;4.78;4.13;;;13.50;45.30;;;;;;5139982;28;20034;-67
2023/05/13 12:50:26;;;;;;;8.93;7.13;;;13.50;22.30;;;;;;5128392;28;20042;-67
2023/05/13 12:52:59;;;;;;;8.52;6.97;;;13.50;42.80;;;;;;5122124;28;20049;-66
2023/05/13 12:55:35;;;;;;;5.30;4.80;;;13.60;42.20;;;;;;5140381;28;20031;-67
2023/05/13 12:58:12;;;;;;;5.55;4.55;;;13.60;17.40;;;;;;5143477;28;20036;-67
2023/05/13 13:00:45;;;;;;;4.38;3.83;;;13.50;13.40;;;;;;5157884;28;20022;-68
2023/05/13 13:03:16;;;;;;;4.57;3.33;;;13.50;22.50;;;;;;5117754;28;20046;-68
2023/05/13 13:05:47;;;;;;;6.00;4.45;;;13.40;11.90;;;;;;5117882;28;20047;-68
2023/05/13 13:08:22;;;;;;;5.05;4.20;;;13.30;45.20;;;;;;5111645;28;20046;-69
2023/05/13 13:10:53;;;;;;;4.10;3.00;;;13.30;62.90;;;;;;5116164;28;20399;-69
2023/05/13 13:13:25;;;;;;;4.35;3.45;;;13.50;77.90;;;;;;5139135;28;20042;-68
2023/05/13 13:16:02;;;;;;;4.13;3.38;;;13.60;20.50;;;;;;5153695;28;20057;-67
2023/05/13 13:18:35;;;;;;;3.72;3.17;;;13.60;29.30;;;;;;5147426;28;20265;-69
2023/05/13 13:21:07;;;;;;;5.83;3.90;;;13.60;13.20;;;;;;5113518;28;20049;-69
2023/05/13 13:23:38;;;;;;;4.07;3.67;;;13.70;19.10;;;;;;5118955;28;20442;-68